sensor_id;sensor_type;location;lat;lon;timestamp;pressure;altitude;pressure_sealevel;temperature;humidity
83100;BME280;72972;51.784;4.660;2024-03-17T00:00:37;102464.31;;;6.80;83.30
83100;BME280;72972;51.784;4.660;2024-03-17T00:03:05;102458.13;;;6.78;83.79
83100;BME280;72972;51.784;4.660;2024-03-17T00:05:30;102454.56;;;6.78;83.82
83100;BME280;72972;51.784;4.660;2024-03-17T00:07:56;102449.69;;;6.81;83.22
83100;BME280;72972;51.784;4.660;2024-03-17T00:10:21;102450.94;;;6.77;84.03
83100;BME280;72972;51.784;4.660;2024-03-17T00:12:46;102447.63;;;6.74;85.11
83100;BME280;72972;51.784;4.660;2024-03-17T00:15:12;102452.94;;;6.75;84.02
83100;BME280;72972;51.784;4.660;2024-03-17T00:17:37;102449.63;;;6.72;85.26
83100;BME280;72972;51.784;4.660;2024-03-17T00:20:03;102445.91;;;6.73;85.00
83100;BME280;72972;51.784;4.660;2024-03-17T00:22:37;102447.34;;;6.77;83.92
83100;BME280;72972;51.784;4.660;2024-03-17T00:25:06;102447.47;;;6.75;84.89
83100;BME280;72972;51.784;4.660;2024-03-17T00:27:31;102439.31;;;6.75;84.70
83100;BME280;72972;51.784;4.660;2024-03-17T00:29:57;102434.59;;;6.77;84.91
83100;BME280;72972;51.784;4.660;2024-03-17T00:32:22;102437.31;;;6.77;84.02
83100;BME280;72972;51.784;4.660;2024-03-17T00:34:48;102444.09;;;6.83;84.20
83100;BME280;72972;51.784;4.660;2024-03-17T00:37:14;102440.25;;;6.85;84.31
83100;BME280;72972;51.784;4.660;2024-03-17T00:39:40;102430.03;;;6.87;84.82
83100;BME280;72972;51.784;4.660;2024-03-17T00:42:05;102432.50;;;6.90;84.40
83100;BME280;72972;51.784;4.660;2024-03-17T00:44:30;102430.53;;;6.92;84.75
83100;BME280;72972;51.784;4.660;2024-03-17T00:46:56;102444.63;;;6.97;83.97
83100;BME280;72972;51.784;4.660;2024-03-17T00:49:21;102437.41;;;6.96;85.24
83100;BME280;72972;51.784;4.660;2024-03-17T00:51:46;102429.38;;;6.95;84.99
83100;BME280;72972;51.784;4.660;2024-03-17T00:54:14;102428.53;;;6.94;84.55
83100;BME280;72972;51.784;4.660;2024-03-17T00:56:40;102426.78;;;6.93;84.58
83100;BME280;72972;51.784;4.660;2024-03-17T00:59:05;102421.78;;;6.98;85.12
83100;BME280;72972;51.784;4.660;2024-03-17T01:01:30;102415.47;;;6.98;84.64
83100;BME280;72972;51.784;4.660;2024-03-17T01:03:56;102416.34;;;6.98;84.46
83100;BME280;72972;51.784;4.660;2024-03-17T01:06:21;102408.56;;;6.94;85.35
83100;BME280;72972;51.784;4.660;2024-03-17T01:08:47;102413.28;;;6.92;84.45
83100;BME280;72972;51.784;4.660;2024-03-17T01:11:15;102409.38;;;6.85;84.87
83100;BME280;72972;51.784;4.660;2024-03-17T01:13:41;102405.22;;;6.90;85.00
83100;BME280;72972;51.784;4.660;2024-03-17T01:16:08;102409.25;;;6.86;84.84
83100;BME280;72972;51.784;4.660;2024-03-17T01:18:33;102399.16;;;6.77;85.26
83100;BME280;72972;51.784;4.660;2024-03-17T01:21:00;102406.31;;;6.78;85.42
83100;BME280;72972;51.784;4.660;2024-03-17T01:23:25;102384.72;;;6.66;85.23
83100;BME280;72972;51.784;4.660;2024-03-17T01:25:50;102394.22;;;6.71;85.64
83100;BME280;72972;51.784;4.660;2024-03-17T01:28:16;102395.09;;;6.72;86.07
83100;BME280;72972;51.784;4.660;2024-03-17T01:30:41;102392.63;;;6.69;85.93
83100;BME280;72972;51.784;4.660;2024-03-17T01:33:06;102394.78;;;6.65;86.42
83100;BME280;72972;51.784;4.660;2024-03-17T01:35:33;102383.88;;;6.65;86.43
83100;BME280;72972;51.784;4.660;2024-03-17T01:37:58;102381.13;;;6.65;86.16
83100;BME280;72972;51.784;4.660;2024-03-17T01:40:24;102383.13;;;6.63;86.87
83100;BME280;72972;51.784;4.660;2024-03-17T01:42:49;102384.84;;;6.64;86.41
83100;BME280;72972;51.784;4.660;2024-03-17T01:45:33;102368.03;;;6.59;87.30
83100;BME280;72972;51.784;4.660;2024-03-17T01:48:00;102360.41;;;6.53;88.08
83100;BME280;72972;51.784;4.660;2024-03-17T01:50:37;102364.31;;;6.60;87.58
83100;BME280;72972;51.784;4.660;2024-03-17T01:53:05;102366.03;;;6.61;87.53
83100;BME280;72972;51.784;4.660;2024-03-17T01:55:37;102366.03;;;6.61;87.30
83100;BME280;72972;51.784;4.660;2024-03-17T01:58:04;102364.31;;;6.60;87.50
83100;BME280;72972;51.784;4.660;2024-03-17T02:00:32;102367.03;;;6.60;87.69
83100;BME280;72972;51.784;4.660;2024-03-17T02:02:59;102363.56;;;6.58;87.64
83100;BME280;72972;51.784;4.660;2024-03-17T02:05:24;102358.59;;;6.63;87.39
83100;BME280;72972;51.784;4.660;2024-03-17T02:07:50;102346.25;;;6.59;87.96
83100;BME280;72972;51.784;4.660;2024-03-17T02:10:15;102351.44;;;6.62;87.75
83100;BME280;72972;51.784;4.660;2024-03-17T02:12:40;102354.84;;;6.64;87.45
83100;BME280;72972;51.784;4.660;2024-03-17T02:15:06;102353.88;;;6.65;87.72
83100;BME280;72972;51.784;4.660;2024-03-17T02:17:32;102345.69;;;6.65;87.24
83100;BME280;72972;51.784;4.660;2024-03-17T02:19:58;102345.44;;;6.68;87.10
83100;BME280;72972;51.784;4.660;2024-03-17T02:22:24;102343.41;;;6.70;87.32
83100;BME280;72972;51.784;4.660;2024-03-17T02:24:50;102338.97;;;6.69;87.55
83100;BME280;72972;51.784;4.660;2024-03-17T02:27:15;102339.72;;;6.71;87.46
83100;BME280;72972;51.784;4.660;2024-03-17T02:29:40;102336.84;;;6.73;87.61
83100;BME280;72972;51.784;4.660;2024-03-17T02:32:07;102338.84;;;6.71;87.88
83100;BME280;72972;51.784;4.660;2024-03-17T02:34:37;102328.06;;;6.69;87.93
83100;BME280;72972;51.784;4.660;2024-03-17T02:37:03;102329.91;;;6.69;87.66
83100;BME280;72972;51.784;4.660;2024-03-17T02:39:30;102328.53;;;6.74;88.24
83100;BME280;72972;51.784;4.660;2024-03-17T02:42:03;102326.53;;;6.76;87.34
83100;BME280;72972;51.784;4.660;2024-03-17T02:44:30;102309.56;;;6.73;87.33
83100;BME280;72972;51.784;4.660;2024-03-17T02:46:59;102319.34;;;6.75;87.10
83100;BME280;72972;51.784;4.660;2024-03-17T02:49:26;102320.34;;;6.74;87.71
83100;BME280;72972;51.784;4.660;2024-03-17T02:51:55;102316.47;;;6.77;87.48
83100;BME280;72972;51.784;4.660;2024-03-17T02:54:21;102323.81;;;6.76;87.63
83100;BME280;72972;51.784;4.660;2024-03-17T02:56:50;102305.69;;;6.75;87.62
83100;BME280;72972;51.784;4.660;2024-03-17T02:59:16;102320.22;;;6.76;86.79
83100;BME280;72972;51.784;4.660;2024-03-17T03:01:42;102312.34;;;6.82;87.22
83100;BME280;72972;51.784;4.660;2024-03-17T03:04:07;102319.53;;;6.83;87.06
83100;BME280;72972;51.784;4.660;2024-03-17T03:06:33;102315.09;;;6.82;87.03
83100;BME280;72972;51.784;4.660;2024-03-17T03:08:59;102318.78;;;6.81;86.91
83100;BME280;72972;51.784;4.660;2024-03-17T03:11:24;102305.03;;;6.83;86.28
83100;BME280;72972;51.784;4.660;2024-03-17T03:13:49;102305.28;;;6.80;86.31
83100;BME280;72972;51.784;4.660;2024-03-17T03:16:15;102292.94;;;6.76;86.74
83100;BME280;72972;51.784;4.660;2024-03-17T03:18:41;102294.81;;;6.75;86.36
83100;BME280;72972;51.784;4.660;2024-03-17T03:21:07;102288.50;;;6.75;86.13
83100;BME280;72972;51.784;4.660;2024-03-17T03:23:33;102286.34;;;6.78;86.38
83100;BME280;72972;51.784;4.660;2024-03-17T03:26:02;102272.72;;;6.78;85.66
83100;BME280;72972;51.784;4.660;2024-03-17T03:28:29;102278.72;;;6.72;86.32
83100;BME280;72972;51.784;4.660;2024-03-17T03:30:54;102275.38;;;6.69;86.14
83100;BME280;72972;51.784;4.660;2024-03-17T03:33:20;102281.38;;;6.63;86.69
83100;BME280;72972;51.784;4.660;2024-03-17T03:35:46;102283.97;;;6.64;87.08
83100;BME280;72972;51.784;4.660;2024-03-17T03:38:12;102267.59;;;6.55;86.50
83100;BME280;72972;51.784;4.660;2024-03-17T03:40:39;102271.63;;;6.60;86.88
83100;BME280;72972;51.784;4.660;2024-03-17T03:43:04;102258.09;;;6.49;87.90
83100;BME280;72972;51.784;4.660;2024-03-17T03:45:30;102263.13;;;6.54;87.29
83100;BME280;72972;51.784;4.660;2024-03-17T03:47:55;102258.69;;;6.53;87.50
83100;BME280;72972;51.784;4.660;2024-03-17T03:50:21;102236.84;;;6.43;87.30
83100;BME280;72972;51.784;4.660;2024-03-17T03:52:48;102247.66;;;6.54;87.93
83100;BME280;72972;51.784;4.660;2024-03-17T03:55:15;102246.34;;;6.49;87.71
83100;BME280;72972;51.784;4.660;2024-03-17T03:57:43;102240.75;;;6.50;87.42
83100;BME280;72972;51.784;4.660;2024-03-17T04:00:19;102245.66;;;6.56;87.51
83100;BME280;72972;51.784;4.660;2024-03-17T04:02:48;102236.63;;;6.56;87.20
83100;BME280;72972;51.784;4.660;2024-03-17T04:05:14;102236.34;;;6.59;86.95
83100;BME280;72972;51.784;4.660;2024-03-17T04:07:39;102239.19;;;6.57;87.73
83100;BME280;72972;51.784;4.660;2024-03-17T04:10:06;102239.81;;;6.61;87.45
83100;BME280;72972;51.784;4.660;2024-03-17T04:12:31;102241.66;;;6.60;87.00
83100;BME280;72972;51.784;4.660;2024-03-17T04:14:58;102242.13;;;6.65;86.46
83100;BME280;72972;51.784;4.660;2024-03-17T04:17:24;102241.84;;;6.68;86.69
83100;BME280;72972;51.784;4.660;2024-03-17T04:19:51;102241.09;;;6.66;86.67
83100;BME280;72972;51.784;4.660;2024-03-17T04:22:17;102235.50;;;6.68;86.97
83100;BME280;72972;51.784;4.660;2024-03-17T04:24:44;102240.53;;;6.72;86.63
83100;BME280;72972;51.784;4.660;2024-03-17T04:27:10;102244.00;;;6.74;86.67
83100;BME280;72972;51.784;4.660;2024-03-17T04:29:36;102226.91;;;6.72;86.84
83100;BME280;72972;51.784;4.660;2024-03-17T04:32:02;102226.63;;;6.75;86.51
83100;BME280;72972;51.784;4.660;2024-03-17T04:34:27;102240.00;;;6.78;86.15
83100;BME280;72972;51.784;4.660;2024-03-17T04:36:53;102236.84;;;6.73;86.51
83100;BME280;72972;51.784;4.660;2024-03-17T04:39:19;102239.81;;;6.70;86.97
83100;BME280;72972;51.784;4.660;2024-03-17T04:41:45;102226.31;;;6.69;86.93
83100;BME280;72972;51.784;4.660;2024-03-17T04:44:13;102226.31;;;6.69;87.05
83100;BME280;72972;51.784;4.660;2024-03-17T04:46:38;102230.78;;;6.70;86.44
83100;BME280;72972;51.784;4.660;2024-03-17T04:49:04;102227.78;;;6.73;87.01
83100;BME280;72972;51.784;4.660;2024-03-17T04:51:29;102229.47;;;6.64;86.82
83100;BME280;72972;51.784;4.660;2024-03-17T04:53:55;102240.63;;;6.61;87.65
83100;BME280;72972;51.784;4.660;2024-03-17T04:56:20;102231.47;;;6.62;87.04
83100;BME280;72972;51.784;4.660;2024-03-17T04:58:46;102228.03;;;6.60;87.10
83100;BME280;72972;51.784;4.660;2024-03-17T05:01:11;102223.59;;;6.59;87.57
83100;BME280;72972;51.784;4.660;2024-03-17T05:03:38;102219.38;;;6.55;87.58
83100;BME280;72972;51.784;4.660;2024-03-17T05:06:04;102215.69;;;6.56;88.01
83100;BME280;72972;51.784;4.660;2024-03-17T05:08:31;102212.25;;;6.64;87.49
83100;BME280;72972;51.784;4.660;2024-03-17T05:11:00;102214.06;;;6.54;87.71
83100;BME280;72972;51.784;4.660;2024-03-17T05:13:27;102212.34;;;6.53;88.21
83100;BME280;72972;51.784;4.660;2024-03-17T05:15:53;102211.50;;;6.52;88.01
83100;BME280;72972;51.784;4.660;2024-03-17T05:18:18;102212.69;;;6.59;88.18
83100;BME280;72972;51.784;4.660;2024-03-17T05:20:45;102216.78;;;6.54;88.40
83100;BME280;72972;51.784;4.660;2024-03-17T05:23:12;102210.91;;;6.49;88.19
83100;BME280;72972;51.784;4.660;2024-03-17T05:25:37;102216.22;;;6.50;88.62
83100;BME280;72972;51.784;4.660;2024-03-17T05:28:03;102214.75;;;6.46;88.35
83100;BME280;72972;51.784;4.660;2024-03-17T05:30:29;102215.16;;;6.42;88.85
83100;BME280;72972;51.784;4.660;2024-03-17T05:32:55;102219.25;;;6.47;89.20
83100;BME280;72972;51.784;4.660;2024-03-17T05:35:21;102225.66;;;6.46;89.03
83100;BME280;72972;51.784;4.660;2024-03-17T05:37:48;102214.50;;;6.49;88.52
83100;BME280;72972;51.784;4.660;2024-03-17T05:40:14;102214.22;;;6.52;88.92
83100;BME280;72972;51.784;4.660;2024-03-17T05:42:41;102213.50;;;6.50;89.02
83100;BME280;72972;51.784;4.660;2024-03-17T05:45:09;102213.66;;;6.49;88.95
83100;BME280;72972;51.784;4.660;2024-03-17T05:47:37;102213.03;;;6.45;89.45
83100;BME280;72972;51.784;4.660;2024-03-17T05:50:03;102222.53;;;6.51;88.96
83100;BME280;72972;51.784;4.660;2024-03-17T05:52:28;102217.66;;;6.54;89.86
83100;BME280;72972;51.784;4.660;2024-03-17T05:54:54;102221.97;;;6.57;89.41
83100;BME280;72972;51.784;4.660;2024-03-17T05:57:21;102215.69;;;6.56;90.07
83100;BME280;72972;51.784;4.660;2024-03-17T05:59:48;102202.63;;;6.60;89.70
83100;BME280;72972;51.784;4.660;2024-03-17T06:02:13;102207.09;;;6.70;89.69
83100;BME280;72972;51.784;4.660;2024-03-17T06:04:40;102214.47;;;6.79;89.53
83100;BME280;72972;51.784;4.660;2024-03-17T06:07:06;102205.00;;;6.83;88.81
83100;BME280;72972;51.784;4.660;2024-03-17T06:09:31;102215.50;;;6.88;88.86
83100;BME280;72972;51.784;4.660;2024-03-17T06:11:57;102203.44;;;6.90;88.37
83100;BME280;72972;51.784;4.660;2024-03-17T06:14:22;102201.16;;;6.95;88.15
83100;BME280;72972;51.784;4.660;2024-03-17T06:16:48;102192.41;;;7.01;87.60
83100;BME280;72972;51.784;4.660;2024-03-17T06:19:13;102203.47;;;7.09;87.94
83100;BME280;72972;51.784;4.660;2024-03-17T06:21:39;102202.03;;;7.05;88.00
83100;BME280;72972;51.784;4.660;2024-03-17T06:24:05;102203.03;;;7.04;87.92
83100;BME280;72972;51.784;4.660;2024-03-17T06:26:32;102200.31;;;7.04;87.78
83100;BME280;72972;51.784;4.660;2024-03-17T06:29:00;102190.81;;;7.08;87.98
83100;BME280;72972;51.784;4.660;2024-03-17T06:31:25;102194.00;;;7.13;87.60
83100;BME280;72972;51.784;4.660;2024-03-17T06:33:51;102193.72;;;7.26;87.94
83100;BME280;72972;51.784;4.660;2024-03-17T06:36:16;102185.53;;;7.26;87.45
83100;BME280;72972;51.784;4.660;2024-03-17T06:38:43;102181.94;;;7.26;86.74
83100;BME280;72972;51.784;4.660;2024-03-17T06:41:11;102198.19;;;7.37;86.49
83100;BME280;72972;51.784;4.660;2024-03-17T06:43:40;102195.03;;;7.41;86.79
83100;BME280;72972;51.784;4.660;2024-03-17T06:46:07;102193.72;;;7.45;86.27
83100;BME280;72972;51.784;4.660;2024-03-17T06:48:33;102181.25;;;7.52;86.43
83100;BME280;72972;51.784;4.660;2024-03-17T06:50:59;102187.38;;;7.64;86.75
83100;BME280;72972;51.784;4.660;2024-03-17T06:53:25;102186.25;;;7.66;85.79
83100;BME280;72972;51.784;4.660;2024-03-17T06:55:58;102181.94;;;7.73;85.42
83100;BME280;72972;51.784;4.660;2024-03-17T06:58:24;102199.72;;;7.77;85.49
83100;BME280;72972;51.784;4.660;2024-03-17T07:01:00;102190.84;;;7.75;85.64
83100;BME280;72972;51.784;4.660;2024-03-17T07:03:28;102194.31;;;7.68;86.14
83100;BME280;72972;51.784;4.660;2024-03-17T07:05:58;102182.66;;;7.66;86.71
83100;BME280;72972;51.784;4.660;2024-03-17T07:08:27;102191.00;;;7.74;86.76
83100;BME280;72972;51.784;4.660;2024-03-17T07:11:06;102188.56;;;7.71;86.45
83100;BME280;72972;51.784;4.660;2024-03-17T07:13:36;102194.84;;;7.81;86.10
83100;BME280;72972;51.784;4.660;2024-03-17T07:16:03;102203.91;;;7.91;86.32
83100;BME280;72972;51.784;4.660;2024-03-17T07:18:31;102205.03;;;7.98;86.51
83100;BME280;72972;51.784;4.660;2024-03-17T07:21:01;102215.97;;;7.98;85.71
83100;BME280;72972;51.784;4.660;2024-03-17T07:23:27;102217.97;;;7.96;86.03
83100;BME280;72972;51.784;4.660;2024-03-17T07:25:58;102209.03;;;8.03;86.50
83100;BME280;72972;51.784;4.660;2024-03-17T07:28:24;102212.34;;;8.07;86.13
83100;BME280;72972;51.784;4.660;2024-03-17T07:30:54;102220.84;;;8.04;86.04
83100;BME280;72972;51.784;4.660;2024-03-17T07:33:21;102216.09;;;8.06;86.53
83100;BME280;72972;51.784;4.660;2024-03-17T07:35:51;102229.03;;;8.04;85.94
83100;BME280;72972;51.784;4.660;2024-03-17T07:38:17;102228.16;;;8.03;86.78
83100;BME280;72972;51.784;4.660;2024-03-17T07:40:44;102214.25;;;7.97;86.41
83100;BME280;72972;51.784;4.660;2024-03-17T07:43:10;102212.66;;;7.94;86.84
83100;BME280;72972;51.784;4.660;2024-03-17T07:45:35;102223.13;;;7.99;86.98
83100;BME280;72972;51.784;4.660;2024-03-17T07:48:00;102222.28;;;7.98;87.53
83100;BME280;72972;51.784;4.660;2024-03-17T07:50:26;102226.28;;;8.04;86.82
83100;BME280;72972;51.784;4.660;2024-03-17T07:52:52;102220.09;;;8.02;87.27
83100;BME280;72972;51.784;4.660;2024-03-17T07:55:17;102221.41;;;8.07;86.76
83100;BME280;72972;51.784;4.660;2024-03-17T07:57:42;102219.53;;;8.08;86.98
83100;BME280;72972;51.784;4.660;2024-03-17T08:00:17;102219.22;;;8.11;87.69
83100;BME280;72972;51.784;4.660;2024-03-17T08:02:45;102213.47;;;8.14;86.71
83100;BME280;72972;51.784;4.660;2024-03-17T08:05:10;102214.91;;;8.18;87.62
83100;BME280;72972;51.784;4.660;2024-03-17T08:07:36;102214.06;;;8.27;87.43
83100;BME280;72972;51.784;4.660;2024-03-17T08:10:01;102209.84;;;8.32;86.99
83100;BME280;72972;51.784;4.660;2024-03-17T08:12:29;102218.91;;;8.33;86.60
83100;BME280;72972;51.784;4.660;2024-03-17T08:14:54;102203.09;;;8.36;86.63
83100;BME280;72972;51.784;4.660;2024-03-17T08:17:20;102213.28;;;8.44;86.32
83100;BME280;72972;51.784;4.660;2024-03-17T08:19:45;102211.09;;;8.47;86.02
83100;BME280;72972;51.784;4.660;2024-03-17T08:22:11;102208.34;;;8.47;86.21
83100;BME280;72972;51.784;4.660;2024-03-17T08:24:36;102205.47;;;8.49;85.51
83100;BME280;72972;51.784;4.660;2024-03-17T08:27:01;102214.25;;;8.52;86.72
83100;BME280;72972;51.784;4.660;2024-03-17T08:29:27;102209.34;;;8.56;85.68
83100;BME280;72972;51.784;4.660;2024-03-17T08:31:52;102210.03;;;8.58;86.61
83100;BME280;72972;51.784;4.660;2024-03-17T08:34:18;102209.69;;;8.70;85.49
83100;BME280;72972;51.784;4.660;2024-03-17T08:36:43;102208.53;;;8.73;85.93
83100;BME280;72972;51.784;4.660;2024-03-17T08:39:09;102214.41;;;8.78;86.38
83100;BME280;72972;51.784;4.660;2024-03-17T08:41:36;102203.16;;;8.81;85.33
83100;BME280;72972;51.784;4.660;2024-03-17T08:44:02;102194.94;;;8.81;85.76
83100;BME280;72972;51.784;4.660;2024-03-17T08:46:27;102197.78;;;8.89;84.76
83100;BME280;72972;51.784;4.660;2024-03-17T08:48:53;102193.50;;;9.04;85.33
83100;BME280;72972;51.784;4.660;2024-03-17T08:51:18;102185.00;;;9.07;85.47
83100;BME280;72972;51.784;4.660;2024-03-17T08:53:44;102184.22;;;9.15;85.14
83100;BME280;72972;51.784;4.660;2024-03-17T08:56:10;102184.31;;;9.23;84.78
83100;BME280;72972;51.784;4.660;2024-03-17T08:58:35;102183.22;;;9.33;84.16
83100;BME280;72972;51.784;4.660;2024-03-17T09:01:07;102181.72;;;9.39;83.65
83100;BME280;72972;51.784;4.660;2024-03-17T09:03:34;102181.25;;;9.61;83.44
83100;BME280;72972;51.784;4.660;2024-03-17T09:06:00;102179.66;;;9.76;82.39
83100;BME280;72972;51.784;4.660;2024-03-17T09:08:25;102174.09;;;9.85;81.12
83100;BME280;72972;51.784;4.660;2024-03-17T09:10:53;102167.38;;;10.05;80.95
83100;BME280;72972;51.784;4.660;2024-03-17T09:13:20;102176.78;;;10.20;81.08
83100;BME280;72972;51.784;4.660;2024-03-17T09:15:56;102177.13;;;10.25;80.21
83100;BME280;72972;51.784;4.660;2024-03-17T09:18:25;102174.91;;;10.29;80.16
83100;BME280;72972;51.784;4.660;2024-03-17T09:21:00;102175.63;;;10.31;78.79
83100;BME280;72972;51.784;4.660;2024-03-17T09:23:26;102168.78;;;10.35;80.09
83100;BME280;72972;51.784;4.660;2024-03-17T09:26:00;102167.16;;;10.50;79.13
83100;BME280;72972;51.784;4.660;2024-03-17T09:28:26;102162.91;;;10.55;79.45
83100;BME280;72972;51.784;4.660;2024-03-17T09:30:53;102155.69;;;10.54;78.58
83100;BME280;72972;51.784;4.660;2024-03-17T09:33:26;102163.44;;;10.67;78.70
83100;BME280;72972;51.784;4.660;2024-03-17T09:35:59;102157.16;;;10.83;79.26
83100;BME280;72972;51.784;4.660;2024-03-17T09:38:25;102155.50;;;10.98;79.22
83100;BME280;72972;51.784;4.660;2024-03-17T09:40:52;102147.25;;;10.98;79.46
83100;BME280;72972;51.784;4.660;2024-03-17T09:43:21;102148.28;;;10.89;78.69
83100;BME280;72972;51.784;4.660;2024-03-17T09:45:48;102160.59;;;10.77;78.85
83100;BME280;72972;51.784;4.660;2024-03-17T09:48:15;102156.78;;;10.70;79.78
83100;BME280;72972;51.784;4.660;2024-03-17T09:51:04;102156.75;;;10.61;80.24
83100;BME280;72972;51.784;4.660;2024-03-17T09:53:32;102156.72;;;10.53;81.00
83100;BME280;72972;51.784;4.660;2024-03-17T09:56:00;102162.38;;;10.52;81.39
83100;BME280;72972;51.784;4.660;2024-03-17T09:58:26;102164.13;;;10.61;80.51
83100;BME280;72972;51.784;4.660;2024-03-17T10:00:52;102155.75;;;10.71;81.08
83100;BME280;72972;51.784;4.660;2024-03-17T10:03:43;102153.06;;;10.87;81.52
83100;BME280;72972;51.784;4.660;2024-03-17T10:06:10;102155.81;;;10.87;80.03
83100;BME280;72972;51.784;4.660;2024-03-17T10:11:09;102146.22;;;10.91;80.15
83100;BME280;72972;51.784;4.660;2024-03-17T10:13:35;102144.50;;;10.90;79.48
83100;BME280;72972;51.784;4.660;2024-03-17T10:16:00;102148.97;;;10.99;80.45
83100;BME280;72972;51.784;4.660;2024-03-17T10:18:25;102140.06;;;11.05;80.47
83100;BME280;72972;51.784;4.660;2024-03-17T10:20:51;102141.66;;;11.15;80.31
83100;BME280;72972;51.784;4.660;2024-03-17T10:23:21;102143.38;;;11.32;81.42
83100;BME280;72972;51.784;4.660;2024-03-17T10:25:47;102150.59;;;11.41;80.53
83100;BME280;72972;51.784;4.660;2024-03-17T10:28:13;102144.59;;;11.54;79.91
83100;BME280;72972;51.784;4.660;2024-03-17T10:30:40;102151.47;;;11.58;79.53
83100;BME280;72972;51.784;4.660;2024-03-17T10:33:06;102150.09;;;11.62;79.86
83100;BME280;72972;51.784;4.660;2024-03-17T10:35:37;102146.88;;;11.66;79.86
83100;BME280;72972;51.784;4.660;2024-03-17T10:38:08;102151.66;;;11.80;79.71
83100;BME280;72972;51.784;4.660;2024-03-17T10:40:34;102143.75;;;11.93;79.32
83100;BME280;72972;51.784;4.660;2024-03-17T10:43:02;102150.25;;;12.08;78.57
83100;BME280;72972;51.784;4.660;2024-03-17T10:45:28;102142.69;;;12.10;78.43
83100;BME280;72972;51.784;4.660;2024-03-17T10:48:02;102140.63;;;12.04;77.82
83100;BME280;72972;51.784;4.660;2024-03-17T10:50:38;102140.28;;;12.07;78.19
83100;BME280;72972;51.784;4.660;2024-03-17T10:53:06;102143.91;;;12.00;78.29
83100;BME280;72972;51.784;4.660;2024-03-17T10:56:00;102140.13;;;12.01;78.51
83100;BME280;72972;51.784;4.660;2024-03-17T10:58:35;102134.66;;;11.93;78.90
83100;BME280;72972;51.784;4.660;2024-03-17T11:01:04;102138.59;;;11.98;79.60
83100;BME280;72972;51.784;4.660;2024-03-17T11:03:33;102134.44;;;12.02;79.87
83100;BME280;72972;51.784;4.660;2024-03-17T11:06:01;102122.97;;;11.99;79.68
83100;BME280;72972;51.784;4.660;2024-03-17T11:08:30;102131.22;;;11.99;79.79
83100;BME280;72972;51.784;4.660;2024-03-17T11:10:56;102128.63;;;11.97;79.54
83100;BME280;72972;51.784;4.660;2024-03-17T11:13:23;102130.50;;;11.97;80.24
83100;BME280;72972;51.784;4.660;2024-03-17T11:15:49;102117.47;;;11.99;80.94
83100;BME280;72972;51.784;4.660;2024-03-17T11:21:24;102113.38;;;11.87;83.35
83100;BME280;72972;51.784;4.660;2024-03-17T11:23:58;102112.50;;;11.86;83.05
83100;BME280;72972;51.784;4.660;2024-03-17T11:26:28;102110.25;;;11.82;83.42
83100;BME280;72972;51.784;4.660;2024-03-17T11:28:55;102110.78;;;11.85;84.69
83100;BME280;72972;51.784;4.660;2024-03-17T11:36:57;102111.59;;;12.02;83.30
83100;BME280;72972;51.784;4.660;2024-03-17T11:39:48;102101.25;;;12.12;82.59
83100;BME280;72972;51.784;4.660;2024-03-17T11:42:24;102097.25;;;12.22;82.46
83100;BME280;72972;51.784;4.660;2024-03-17T11:45:12;102094.50;;;12.30;81.59
83100;BME280;72972;51.784;4.660;2024-03-17T11:47:41;102089.75;;;12.55;81.96
83100;BME280;72972;51.784;4.660;2024-03-17T11:50:09;102087.94;;;12.70;80.64
83100;BME280;72972;51.784;4.660;2024-03-17T11:52:36;102081.31;;;12.87;79.86
83100;BME280;72972;51.784;4.660;2024-03-17T11:55:02;102069.00;;;13.06;78.61
83100;BME280;72972;51.784;4.660;2024-03-17T11:57:29;102069.91;;;13.21;77.96
83100;BME280;72972;51.784;4.660;2024-03-17T11:59:56;102069.59;;;13.38;77.21
83100;BME280;72972;51.784;4.660;2024-03-17T12:02:28;102063.88;;;13.40;77.69
83100;BME280;72972;51.784;4.660;2024-03-17T12:04:58;102053.50;;;13.64;77.76
83100;BME280;72972;51.784;4.660;2024-03-17T12:07:24;102057.13;;;13.79;77.44
83100;BME280;72972;51.784;4.660;2024-03-17T12:09:51;102058.38;;;13.77;77.15
83100;BME280;72972;51.784;4.660;2024-03-17T12:12:21;102051.50;;;13.73;77.08
83100;BME280;72972;51.784;4.660;2024-03-17T12:14:48;102052.94;;;13.69;76.77
83100;BME280;72972;51.784;4.660;2024-03-17T12:17:19;102051.88;;;13.70;77.73
83100;BME280;72972;51.784;4.660;2024-03-17T12:19:45;102045.03;;;13.66;77.01
83100;BME280;72972;51.784;4.660;2024-03-17T12:22:32;102043.41;;;13.71;77.99
83100;BME280;72972;51.784;4.660;2024-03-17T12:25:02;102033.38;;;13.78;77.40
83100;BME280;72972;51.784;4.660;2024-03-17T12:27:29;102038.13;;;13.84;76.93
83100;BME280;72972;51.784;4.660;2024-03-17T12:29:55;102039.81;;;13.85;77.16
83100;BME280;72972;51.784;4.660;2024-03-17T12:32:23;102030.53;;;13.86;77.95
83100;BME280;72972;51.784;4.660;2024-03-17T12:34:51;102033.00;;;13.81;77.45
83100;BME280;72972;51.784;4.660;2024-03-17T12:37:22;102027.09;;;13.84;77.32
83100;BME280;72972;51.784;4.660;2024-03-17T12:39:49;102033.94;;;13.88;77.21
83100;BME280;72972;51.784;4.660;2024-03-17T12:42:25;102033.00;;;13.81;76.54
83100;BME280;72972;51.784;4.660;2024-03-17T12:44:59;102015.66;;;13.73;76.66
83100;BME280;72972;51.784;4.660;2024-03-17T12:47:30;102018.34;;;13.95;76.45
83100;BME280;72972;51.784;4.660;2024-03-17T12:49:58;102006.38;;;14.03;76.88
83100;BME280;72972;51.784;4.660;2024-03-17T12:52:32;102013.59;;;14.04;76.35
83100;BME280;72972;51.784;4.660;2024-03-17T12:55:09;102006.34;;;13.88;76.60
83100;BME280;72972;51.784;4.660;2024-03-17T12:58:06;102012.34;;;14.06;76.96
83100;BME280;72972;51.784;4.660;2024-03-17T13:01:01;102014.91;;;14.23;75.75
83100;BME280;72972;51.784;4.660;2024-03-17T13:03:33;102012.91;;;14.46;75.87
83100;BME280;72972;51.784;4.660;2024-03-17T13:06:01;102004.34;;;14.41;74.77
83100;BME280;72972;51.784;4.660;2024-03-17T13:08:36;101995.34;;;14.32;75.47
83100;BME280;72972;51.784;4.660;2024-03-17T13:11:03;101991.22;;;14.28;74.69